sensor_id;sensor_type;location;lat;lon;timestamp;temperature;humidity
57833;DHT22;43667;53.036;6.740;2022-09-01T00:01:15;13.10;99.90
57833;DHT22;43667;53.036;6.740;2022-09-01T00:03:46;13.00;99.90
57833;DHT22;43667;53.036;6.740;2022-09-01T00:06:16;13.00;99.90
57833;DHT22;43667;53.036;6.740;2022-09-01T00:08:47;13.00;99.90
57833;DHT22;43667;53.036;6.740;2022-09-01T00:11:13;12.90;99.90
57833;DHT22;43667;53.036;6.740;2022-09-01T00:13:39;12.90;99.90
57833;DHT22;43667;53.036;6.740;2022-09-01T00:16:05;12.80;99.90
57833;DHT22;43667;53.036;6.740;2022-09-01T00:18:31;12.80;99.90
57833;DHT22;43667;53.036;6.740;2022-09-01T00:20:58;12.80;99.90
57833;DHT22;43667;53.036;6.740;2022-09-01T00:23:25;12.80;99.90
57833;DHT22;43667;53.036;6.740;2022-09-01T00:25:51;12.80;99.90
57833;DHT22;43667;53.036;6.740;2022-09-01T00:28:17;12.80;99.90
57833;DHT22;43667;53.036;6.740;2022-09-01T00:30:42;12.70;99.90
57833;DHT22;43667;53.036;6.740;2022-09-01T00:33:08;12.80;99.90
57833;DHT22;43667;53.036;6.740;2022-09-01T00:35:33;12.80;99.90
57833;DHT22;43667;53.036;6.740;2022-09-01T00:37:59;12.70;99.90
57833;DHT22;43667;53.036;6.740;2022-09-01T00:40:25;12.70;99.90
57833;DHT22;43667;53.036;6.740;2022-09-01T00:42:51;12.70;99.90
57833;DHT22;43667;53.036;6.740;2022-09-01T00:45:18;12.60;99.90
57833;DHT22;43667;53.036;6.740;2022-09-01T00:47:46;12.60;99.90
57833;DHT22;43667;53.036;6.740;2022-09-01T00:50:14;12.60;99.90
57833;DHT22;43667;53.036;6.740;2022-09-01T00:52:50;12.60;99.90
57833;DHT22;43667;53.036;6.740;2022-09-01T00:55:22;12.60;99.90
57833;DHT22;43667;53.036;6.740;2022-09-01T00:57:48;12.60;99.90
57833;DHT22;43667;53.036;6.740;2022-09-01T01:00:24;12.60;99.90
57833;DHT22;43667;53.036;6.740;2022-09-01T01:02:50;12.60;99.90
57833;DHT22;43667;53.036;6.740;2022-09-01T01:05:28;12.60;99.90
57833;DHT22;43667;53.036;6.740;2022-09-01T01:07:59;12.60;99.90
57833;DHT22;43667;53.036;6.740;2022-09-01T01:10:26;12.70;99.90
57833;DHT22;43667;53.036;6.740;2022-09-01T01:12:57;12.70;99.90
57833;DHT22;43667;53.036;6.740;2022-09-01T01:15:27;12.70;99.90
57833;DHT22;43667;53.036;6.740;2022-09-01T01:17:53;12.80;99.90
57833;DHT22;43667;53.036;6.740;2022-09-01T01:20:21;12.80;99.90
57833;DHT22;43667;53.036;6.740;2022-09-01T01:23:36;12.80;99.90
57833;DHT22;43667;53.036;6.740;2022-09-01T01:26:05;12.90;99.90
57833;DHT22;43667;53.036;6.740;2022-09-01T01:28:35;12.90;99.90
57833;DHT22;43667;53.036;6.740;2022-09-01T01:31:11;12.90;99.90
57833;DHT22;43667;53.036;6.740;2022-09-01T01:33:47;12.90;99.90
57833;DHT22;43667;53.036;6.740;2022-09-01T01:36:22;12.90;99.90
57833;DHT22;43667;53.036;6.740;2022-09-01T01:38:59;12.90;99.90
57833;DHT22;43667;53.036;6.740;2022-09-01T01:41:31;12.90;99.90
57833;DHT22;43667;53.036;6.740;2022-09-01T01:43:59;12.90;99.90
57833;DHT22;43667;53.036;6.740;2022-09-01T01:46:29;12.90;99.90
57833;DHT22;43667;53.036;6.740;2022-09-01T01:48:54;12.90;99.90
57833;DHT22;43667;53.036;6.740;2022-09-01T01:51:22;12.90;99.90
57833;DHT22;43667;53.036;6.740;2022-09-01T01:53:54;12.90;99.90
57833;DHT22;43667;53.036;6.740;2022-09-01T01:56:22;12.90;99.90
57833;DHT22;43667;53.036;6.740;2022-09-01T01:58:52;12.90;99.90
57833;DHT22;43667;53.036;6.740;2022-09-01T02:01:19;12.90;99.90
57833;DHT22;43667;53.036;6.740;2022-09-01T02:03:46;12.80;99.90
57833;DHT22;43667;53.036;6.740;2022-09-01T02:06:12;12.80;99.90
57833;DHT22;43667;53.036;6.740;2022-09-01T02:08:39;12.80;99.90
57833;DHT22;43667;53.036;6.740;2022-09-01T02:11:06;12.80;99.90
57833;DHT22;43667;53.036;6.740;2022-09-01T02:13:32;12.80;99.90
57833;DHT22;43667;53.036;6.740;2022-09-01T02:16:06;12.80;99.90
57833;DHT22;43667;53.036;6.740;2022-09-01T02:18:35;12.80;99.90
57833;DHT22;43667;53.036;6.740;2022-09-01T02:21:03;12.80;99.90
57833;DHT22;43667;53.036;6.740;2022-09-01T02:23:39;12.80;99.90
57833;DHT22;43667;53.036;6.740;2022-09-01T02:26:06;12.80;99.90
57833;DHT22;43667;53.036;6.740;2022-09-01T02:28:36;12.80;99.90
57833;DHT22;43667;53.036;6.740;2022-09-01T02:31:04;12.80;99.90
57833;DHT22;43667;53.036;6.740;2022-09-01T02:33:33;12.80;99.90
57833;DHT22;43667;53.036;6.740;2022-09-01T02:36:04;12.80;99.90
57833;DHT22;43667;53.036;6.740;2022-09-01T02:38:30;12.80;99.90
57833;DHT22;43667;53.036;6.740;2022-09-01T02:40:59;12.80;99.90
57833;DHT22;43667;53.036;6.740;2022-09-01T02:43:26;12.80;99.90
57833;DHT22;43667;53.036;6.740;2022-09-01T02:45:54;12.80;99.90
57833;DHT22;43667;53.036;6.740;2022-09-01T02:48:27;12.80;99.90
57833;DHT22;43667;53.036;6.740;2022-09-01T02:50:58;12.80;99.90
57833;DHT22;43667;53.036;6.740;2022-09-01T02:53:24;12.80;99.90
57833;DHT22;43667;53.036;6.740;2022-09-01T02:55:50;12.80;99.90
57833;DHT22;43667;53.036;6.740;2022-09-01T02:58:16;12.80;99.90
57833;DHT22;43667;53.036;6.740;2022-09-01T03:00:43;12.80;99.90
57833;DHT22;43667;53.036;6.740;2022-09-01T03:03:10;12.80;99.90
57833;DHT22;43667;53.036;6.740;2022-09-01T03:05:37;12.80;99.90
57833;DHT22;43667;53.036;6.740;2022-09-01T03:08:09;12.80;99.90
57833;DHT22;43667;53.036;6.740;2022-09-01T03:10:38;12.80;99.90
57833;DHT22;43667;53.036;6.740;2022-09-01T03:13:14;12.80;99.90
57833;DHT22;43667;53.036;6.740;2022-09-01T03:15:41;12.80;99.90
57833;DHT22;43667;53.036;6.740;2022-09-01T03:18:08;12.80;99.90
57833;DHT22;43667;53.036;6.740;2022-09-01T03:20:35;12.80;99.90
57833;DHT22;43667;53.036;6.740;2022-09-01T03:23:04;12.80;99.90
57833;DHT22;43667;53.036;6.740;2022-09-01T03:25:34;12.70;99.90
57833;DHT22;43667;53.036;6.740;2022-09-01T03:28:00;12.80;99.90
57833;DHT22;43667;53.036;6.740;2022-09-01T03:30:28;12.70;99.90
57833;DHT22;43667;53.036;6.740;2022-09-01T03:32:58;12.70;99.90
57833;DHT22;43667;53.036;6.740;2022-09-01T03:35:26;12.70;99.90
57833;DHT22;43667;53.036;6.740;2022-09-01T03:37:53;12.60;99.90
57833;DHT22;43667;53.036;6.740;2022-09-01T03:40:20;12.60;99.90
57833;DHT22;43667;53.036;6.740;2022-09-01T03:42:46;12.60;99.90
57833;DHT22;43667;53.036;6.740;2022-09-01T03:45:12;12.50;99.90
57833;DHT22;43667;53.036;6.740;2022-09-01T03:47:41;12.50;99.90
57833;DHT22;43667;53.036;6.740;2022-09-01T03:50:10;12.50;99.90
57833;DHT22;43667;53.036;6.740;2022-09-01T03:52:55;12.50;99.90
57833;DHT22;43667;53.036;6.740;2022-09-01T03:55:25;12.40;99.90
57833;DHT22;43667;53.036;6.740;2022-09-01T03:57:58;12.40;99.90
57833;DHT22;43667;53.036;6.740;2022-09-01T04:00:26;12.40;99.90
57833;DHT22;43667;53.036;6.740;2022-09-01T04:02:57;12.30;99.90
57833;DHT22;43667;53.036;6.740;2022-09-01T04:05:25;12.30;99.90
57833;DHT22;43667;53.036;6.740;2022-09-01T04:07:55;12.20;99.90
57833;DHT22;43667;53.036;6.740;2022-09-01T04:10:21;12.30;99.90
57833;DHT22;43667;53.036;6.740;2022-09-01T04:12:47;12.30;99.90
57833;DHT22;43667;53.036;6.740;2022-09-01T04:15:14;12.30;99.90
57833;DHT22;43667;53.036;6.740;2022-09-01T04:17:44;12.30;99.90
57833;DHT22;43667;53.036;6.740;2022-09-01T04:20:29;12.20;99.90
57833;DHT22;43667;53.036;6.740;2022-09-01T04:23:05;12.20;99.90
57833;DHT22;43667;53.036;6.740;2022-09-01T04:25:36;12.20;99.90
57833;DHT22;43667;53.036;6.740;2022-09-01T04:28:04;12.20;99.90
57833;DHT22;43667;53.036;6.740;2022-09-01T04:30:38;12.20;99.90
57833;DHT22;43667;53.036;6.740;2022-09-01T04:33:05;12.10;99.90
57833;DHT22;43667;53.036;6.740;2022-09-01T04:35:36;12.20;99.90
57833;DHT22;43667;53.036;6.740;2022-09-01T04:38:01;12.10;99.90
57833;DHT22;43667;53.036;6.740;2022-09-01T04:40:27;12.10;99.90
57833;DHT22;43667;53.036;6.740;2022-09-01T04:42:52;12.10;99.90
57833;DHT22;43667;53.036;6.740;2022-09-01T04:45:18;12.10;99.90
57833;DHT22;43667;53.036;6.740;2022-09-01T04:47:47;12.00;99.90
57833;DHT22;43667;53.036;6.740;2022-09-01T04:50:13;12.10;99.90
57833;DHT22;43667;53.036;6.740;2022-09-01T04:52:43;12.10;99.90
57833;DHT22;43667;53.036;6.740;2022-09-01T04:55:11;12.10;99.90
57833;DHT22;43667;53.036;6.740;2022-09-01T04:57:47;12.10;99.90
57833;DHT22;43667;53.036;6.740;2022-09-01T05:00:18;12.10;99.90
57833;DHT22;43667;53.036;6.740;2022-09-01T05:02:52;12.10;99.90
57833;DHT22;43667;53.036;6.740;2022-09-01T05:05:20;12.10;99.90
57833;DHT22;43667;53.036;6.740;2022-09-01T05:07:46;12.10;99.90
57833;DHT22;43667;53.036;6.740;2022-09-01T05:10:17;12.20;99.90
57833;DHT22;43667;53.036;6.740;2022-09-01T05:12:43;12.20;99.90
57833;DHT22;43667;53.036;6.740;2022-09-01T05:15:11;12.20;99.90
57833;DHT22;43667;53.036;6.740;2022-09-01T05:17:38;12.30;99.90
57833;DHT22;43667;53.036;6.740;2022-09-01T05:20:05;12.30;99.90
57833;DHT22;43667;53.036;6.740;2022-09-01T05:22:31;12.30;99.90
57833;DHT22;43667;53.036;6.740;2022-09-01T05:25:00;12.30;99.90
57833;DHT22;43667;53.036;6.740;2022-09-01T05:27:36;12.40;99.90
57833;DHT22;43667;53.036;6.740;2022-09-01T05:30:04;12.40;99.90
57833;DHT22;43667;53.036;6.740;2022-09-01T05:32:33;12.40;99.90
57833;DHT22;43667;53.036;6.740;2022-09-01T05:35:03;12.40;99.90
57833;DHT22;43667;53.036;6.740;2022-09-01T05:37:33;12.40;99.90
57833;DHT22;43667;53.036;6.740;2022-09-01T05:40:00;12.50;99.90
57833;DHT22;43667;53.036;6.740;2022-09-01T05:42:26;12.50;99.90
57833;DHT22;43667;53.036;6.740;2022-09-01T05:44:53;12.50;99.90
57833;DHT22;43667;53.036;6.740;2022-09-01T05:47:18;12.60;99.90
57833;DHT22;43667;53.036;6.740;2022-09-01T05:49:46;12.60;99.90
57833;DHT22;43667;53.036;6.740;2022-09-01T05:52:11;12.60;99.90
57833;DHT22;43667;53.036;6.740;2022-09-01T05:54:37;12.70;99.90
57833;DHT22;43667;53.036;6.740;2022-09-01T05:57:03;12.80;99.90
57833;DHT22;43667;53.036;6.740;2022-09-01T05:59:29;12.80;99.90
57833;DHT22;43667;53.036;6.740;2022-09-01T06:01:57;12.80;99.90
57833;DHT22;43667;53.036;6.740;2022-09-01T06:04:24;12.80;99.90
57833;DHT22;43667;53.036;6.740;2022-09-01T06:06:50;12.90;99.90
57833;DHT22;43667;53.036;6.740;2022-09-01T06:09:18;12.90;99.90
57833;DHT22;43667;53.036;6.740;2022-09-01T06:11:45;13.00;99.90
57833;DHT22;43667;53.036;6.740;2022-09-01T06:14:12;13.10;99.90
57833;DHT22;43667;53.036;6.740;2022-09-01T06:16:38;13.20;99.90
57833;DHT22;43667;53.036;6.740;2022-09-01T06:19:04;13.10;99.90
57833;DHT22;43667;53.036;6.740;2022-09-01T06:21:30;13.20;99.90
57833;DHT22;43667;53.036;6.740;2022-09-01T06:23:57;13.20;99.90
57833;DHT22;43667;53.036;6.740;2022-09-01T06:26:29;13.30;99.90
57833;DHT22;43667;53.036;6.740;2022-09-01T06:28:56;13.40;99.90
57833;DHT22;43667;53.036;6.740;2022-09-01T06:31:25;13.60;99.90
57833;DHT22;43667;53.036;6.740;2022-09-01T06:33:52;13.70;99.90
57833;DHT22;43667;53.036;6.740;2022-09-01T06:36:22;13.80;99.90
57833;DHT22;43667;53.036;6.740;2022-09-01T06:38:52;14.00;99.90
57833;DHT22;43667;53.036;6.740;2022-09-01T06:41:20;14.20;99.90
57833;DHT22;43667;53.036;6.740;2022-09-01T06:43:49;14.30;99.90
57833;DHT22;43667;53.036;6.740;2022-09-01T06:46:19;14.50;99.90
57833;DHT22;43667;53.036;6.740;2022-09-01T06:48:46;14.70;99.90
57833;DHT22;43667;53.036;6.740;2022-09-01T06:51:17;14.90;99.90
57833;DHT22;43667;53.036;6.740;2022-09-01T06:53:46;15.10;99.90
57833;DHT22;43667;53.036;6.740;2022-09-01T06:56:21;15.30;99.90
57833;DHT22;43667;53.036;6.740;2022-09-01T06:58:52;15.50;99.90
57833;DHT22;43667;53.036;6.740;2022-09-01T07:01:18;15.60;99.90
57833;DHT22;43667;53.036;6.740;2022-09-01T07:03:47;15.80;99.90
57833;DHT22;43667;53.036;6.740;2022-09-01T07:06:14;15.90;99.90
57833;DHT22;43667;53.036;6.740;2022-09-01T07:08:41;16.10;99.90
57833;DHT22;43667;53.036;6.740;2022-09-01T07:11:19;16.30;99.90
57833;DHT22;43667;53.036;6.740;2022-09-01T07:13:53;16.50;99.90
57833;DHT22;43667;53.036;6.740;2022-09-01T07:16:21;16.70;99.90
57833;DHT22;43667;53.036;6.740;2022-09-01T07:18:52;16.80;99.90
57833;DHT22;43667;53.036;6.740;2022-09-01T07:21:18;17.00;99.90
57833;DHT22;43667;53.036;6.740;2022-09-01T07:23:45;17.10;99.90
57833;DHT22;43667;53.036;6.740;2022-09-01T07:26:11;17.20;99.90
57833;DHT22;43667;53.036;6.740;2022-09-01T07:28:43;17.20;99.90
57833;DHT22;43667;53.036;6.740;2022-09-01T07:31:17;17.30;99.90
57833;DHT22;43667;53.036;6.740;2022-09-01T07:33:45;17.50;99.90
57833;DHT22;43667;53.036;6.740;2022-09-01T07:36:14;17.50;99.90
57833;DHT22;43667;53.036;6.740;2022-09-01T07:38:40;17.60;99.90
57833;DHT22;43667;53.036;6.740;2022-09-01T07:41:07;17.80;99.90
57833;DHT22;43667;53.036;6.740;2022-09-01T07:43:33;17.90;99.90
57833;DHT22;43667;53.036;6.740;2022-09-01T07:46:03;18.00;99.90
57833;DHT22;43667;53.036;6.740;2022-09-01T07:48:29;18.20;99.90
57833;DHT22;43667;53.036;6.740;2022-09-01T07:50:55;18.30;99.90
57833;DHT22;43667;53.036;6.740;2022-09-01T07:53:27;18.50;99.90
57833;DHT22;43667;53.036;6.740;2022-09-01T07:55:56;18.70;98.50
57833;DHT22;43667;53.036;6.740;2022-09-01T07:58:25;18.80;99.20
57833;DHT22;43667;53.036;6.740;2022-09-01T08:00:51;18.90;98.80
57833;DHT22;43667;53.036;6.740;2022-09-01T08:03:21;19.10;98.40
57833;DHT22;43667;53.036;6.740;2022-09-01T08:05:46;19.20;97.40
57833;DHT22;43667;53.036;6.740;2022-09-01T08:08:15;19.30;97.20
57833;DHT22;43667;53.036;6.740;2022-09-01T08:10:41;19.30;96.90
57833;DHT22;43667;53.036;6.740;2022-09-01T08:13:08;19.40;96.20
57833;DHT22;43667;53.036;6.740;2022-09-01T08:15:34;19.50;96.40
57833;DHT22;43667;53.036;6.740;2022-09-01T08:17:59;19.70;96.10
57833;DHT22;43667;53.036;6.740;2022-09-01T08:20:25;19.80;95.50
57833;DHT22;43667;53.036;6.740;2022-09-01T08:22:51;20.00;95.00
57833;DHT22;43667;53.036;6.740;2022-09-01T08:25:17;20.30;94.70
57833;DHT22;43667;53.036;6.740;2022-09-01T08:27:42;20.50;94.20
57833;DHT22;43667;53.036;6.740;2022-09-01T08:30:10;20.60;93.20
57833;DHT22;43667;53.036;6.740;2022-09-01T08:32:38;20.70;93.00
57833;DHT22;43667;53.036;6.740;2022-09-01T08:35:11;20.70;91.50
57833;DHT22;43667;53.036;6.740;2022-09-01T08:37:37;20.80;91.10
57833;DHT22;43667;53.036;6.740;2022-09-01T08:40:05;21.00;90.40
57833;DHT22;43667;53.036;6.740;2022-09-01T08:42:47;21.00;89.50
57833;DHT22;43667;53.036;6.740;2022-09-01T08:45:24;21.20;88.90
57833;DHT22;43667;53.036;6.740;2022-09-01T08:47:53;21.40;87.70
57833;DHT22;43667;53.036;6.740;2022-09-01T08:50:20;21.60;85.80
57833;DHT22;43667;53.036;6.740;2022-09-01T08:53:07;21.80;83.80
57833;DHT22;43667;53.036;6.740;2022-09-01T08:55:40;21.80;78.10
57833;DHT22;43667;53.036;6.740;2022-09-01T08:58:07;21.70;79.70
57833;DHT22;43667;53.036;6.740;2022-09-01T09:00:41;21.80;77.10
57833;DHT22;43667;53.036;6.740;2022-09-01T09:03:31;21.70;78.00
57833;DHT22;43667;53.036;6.740;2022-09-01T09:08:55;21.80;75.40
57833;DHT22;43667;53.036;6.740;2022-09-01T09:14:36;22.20;73.00
57833;DHT22;43667;53.036;6.740;2022-09-01T09:17:07;22.30;67.80
57833;DHT22;43667;53.036;6.740;2022-09-01T09:19:38;22.30;70.00
57833;DHT22;43667;53.036;6.740;2022-09-01T09:22:06;22.50;68.80
57833;DHT22;43667;53.036;6.740;2022-09-01T09:27:38;22.80;67.30
57833;DHT22;43667;53.036;6.740;2022-09-01T09:32:53;23.20;65.60
57833;DHT22;43667;53.036;6.740;2022-09-01T09:41:22;23.20;58.20
57833;DHT22;43667;53.036;6.740;2022-09-01T09:44:04;23.30;60.10
57833;DHT22;43667;53.036;6.740;2022-09-01T09:51:47;23.60;58.20
57833;DHT22;43667;53.036;6.740;2022-09-01T09:54:23;23.90;57.60
57833;DHT22;43667;53.036;6.740;2022-09-01T09:59:35;24.40;54.60
57833;DHT22;43667;53.036;6.740;2022-09-01T10:02:23;24.80;53.00
57833;DHT22;43667;53.036;6.740;2022-09-01T10:04:50;24.70;50.30
57833;DHT22;43667;53.036;6.740;2022-09-01T10:07:27;24.40;50.70
57833;DHT22;43667;53.036;6.740;2022-09-01T10:09:54;24.10;50.70
57833;DHT22;43667;53.036;6.740;2022-09-01T10:12:22;24.10;51.60
57833;DHT22;43667;53.036;6.740;2022-09-01T10:15:08;24.00;50.60
57833;DHT22;43667;53.036;6.740;2022-09-01T10:17:38;24.10;50.30
57833;DHT22;43667;53.036;6.740;2022-09-01T10:20:17;24.10;50.30
57833;DHT22;43667;53.036;6.740;2022-09-01T10:22:46;24.30;50.10
57833;DHT22;43667;53.036;6.740;2022-09-01T10:25:20;24.30;49.80
57833;DHT22;43667;53.036;6.740;2022-09-01T10:27:53;24.30;48.60
57833;DHT22;43667;53.036;6.740;2022-09-01T10:30:20;24.50;46.00
57833;DHT22;43667;53.036;6.740;2022-09-01T10:32:55;24.50;45.30
57833;DHT22;43667;53.036;6.740;2022-09-01T10:35:35;24.30;45.60
57833;DHT22;43667;53.036;6.740;2022-09-01T10:38:05;24.20;45.50
57833;DHT22;43667;53.036;6.740;2022-09-01T10:40:37;24.10;45.60
57833;DHT22;43667;53.036;6.740;2022-09-01T10:43:25;23.90;46.90
57833;DHT22;43667;53.036;6.740;2022-09-01T10:45:52;23.90;45.60
57833;DHT22;43667;53.036;6.740;2022-09-01T10:48:23;23.80;46.50
57833;DHT22;43667;53.036;6.740;2022-09-01T10:53:45;23.80;45.60
57833;DHT22;43667;53.036;6.740;2022-09-01T10:59:49;24.40;45.30
57833;DHT22;43667;53.036;6.740;2022-09-01T11:02:13;24.70;44.30
57833;DHT22;43667;53.036;6.740;2022-09-01T11:07:34;24.90;44.70
57833;DHT22;43667;53.036;6.740;2022-09-01T11:13:23;25.00;43.10
57833;DHT22;43667;53.036;6.740;2022-09-01T11:15:52;24.80;43.00
57833;DHT22;43667;53.036;6.740;2022-09-01T11:18:27;24.30;44.50
57833;DHT22;43667;53.036;6.740;2022-09-01T11:20:54;24.30;44.70
57833;DHT22;43667;53.036;6.740;2022-09-01T11:23:37;24.40;43.90
57833;DHT22;43667;53.036;6.740;2022-09-01T11:26:43;24.20;44.20
57833;DHT22;43667;53.036;6.740;2022-09-01T11:29:49;24.10;44.80
57833;DHT22;43667;53.036;6.740;2022-09-01T11:32:17;24.00;44.80
57833;DHT22;43667;53.036;6.740;2022-09-01T11:34:45;23.80;45.50
57833;DHT22;43667;53.036;6.740;2022-09-01T11:37:15;23.70;46.20
57833;DHT22;43667;53.036;6.740;2022-09-01T11:39:50;23.90;46.10
57833;DHT22;43667;53.036;6.740;2022-09-01T11:42:25;24.00;45.50
57833;DHT22;43667;53.036;6.740;2022-09-01T11:45:15;23.90;45.50
57833;DHT22;43667;53.036;6.740;2022-09-01T11:47:46;23.60;45.80
57833;DHT22;43667;53.036;6.740;2022-09-01T11:50:24;23.40;45.90
57833;DHT22;43667;53.036;6.740;2022-09-01T11:52:59;23.60;46.10
57833;DHT22;43667;53.036;6.740;2022-09-01T11:55:35;23.70;45.70
57833;DHT22;43667;53.036;6.740;2022-09-01T11:58:02;23.90;45.40
57833;DHT22;43667;53.036;6.740;2022-09-01T12:00:37;24.00;45.10
57833;DHT22;43667;53.036;6.740;2022-09-01T12:03:20;24.20;45.00
57833;DHT22;43667;53.036;6.740;2022-09-01T12:05:47;24.40;44.20
57833;DHT22;43667;53.036;6.740;2022-09-01T12:08:17;24.50;43.00
57833;DHT22;43667;53.036;6.740;2022-09-01T12:10:44;24.70;44.20
57833;DHT22;43667;53.036;6.740;2022-09-01T12:13:19;24.90;44.00
57833;DHT22;43667;53.036;6.740;2022-09-01T12:15:53;24.90;43.90
57833;DHT22;43667;53.036;6.740;2022-09-01T12:18:23;24.70;43.90
57833;DHT22;43667;53.036;6.740;2022-09-01T12:20:58;24.60;44.30
57833;DHT22;43667;53.036;6.740;2022-09-01T12:23:30;24.40;44.50
57833;DHT22;43667;53.036;6.740;2022-09-01T12:26:07;24.10;44.80
57833;DHT22;43667;53.036;6.740;2022-09-01T12:28:35;23.90;45.40
57833;DHT22;43667;53.036;6.740;2022-09-01T12:31:06;24.00;45.60
57833;DHT22;43667;53.036;6.740;2022-09-01T12:33:32;23.90;45.80
57833;DHT22;43667;53.036;6.740;2022-09-01T12:36:31;23.80;46.00
57833;DHT22;43667;53.036;6.740;2022-09-01T12:41:42;23.40;45.40
57833;DHT22;43667;53.036;6.740;2022-09-01T12:44:28;23.40;46.20
57833;DHT22;43667;53.036;6.740;2022-09-01T12:46:56;23.50;45.90
57833;DHT22;43667;53.036;6.740;2022-09-01T12:49:25;23.40;46.70
57833;DHT22;43667;53.036;6.740;2022-09-01T12:54:45;23.60;47.00
57833;DHT22;43667;53.036;6.740;2022-09-01T12:57:21;23.90;46.40
57833;DHT22;43667;53.036;6.740;2022-09-01T13:05:26;24.90;45.00
57833;DHT22;43667;53.036;6.740;2022-09-01T13:07:57;24.90;43.90
57833;DHT22;43667;53.036;6.740;2022-09-01T13:10:25;24.80;43.80
57833;DHT22;43667;53.036;6.740;2022-09-01T13:12:53;24.50;44.70
57833;DHT22;43667;53.036;6.740;2022-09-01T13:15:20;24.30;45.00
57833;DHT22;43667;53.036;6.740;2022-09-01T13:17:46;24.10;45.00
57833;DHT22;43667;53.036;6.740;2022-09-01T13:20:12;24.10;45.60
57833;DHT22;43667;53.036;6.740;2022-09-01T13:22:39;24.30;45.50
57833;DHT22;43667;53.036;6.740;2022-09-01T13:25:07;24.80;45.10
57833;DHT22;43667;53.036;6.740;2022-09-01T13:27:35;25.10;43.90
57833;DHT22;43667;53.036;6.740;2022-09-01T13:30:03;25.40;43.80
57833;DHT22;43667;53.036;6.740;2022-09-01T13:32:29;25.70;44.00
57833;DHT22;43667;53.036;6.740;2022-09-01T13:34:55;25.70;43.40
57833;DHT22;43667;53.036;6.740;2022-09-01T13:37:21;25.80;42.80
57833;DHT22;43667;53.036;6.740;2022-09-01T13:39:47;25.90;42.20
57833;DHT22;43667;53.036;6.740;2022-09-01T13:42:13;26.10;41.90
57833;DHT22;43667;53.036;6.740;2022-09-01T13:44:39;26.20;42.00
57833;DHT22;43667;53.036;6.740;2022-09-01T13:47:05;26.30;42.00
57833;DHT22;43667;53.036;6.740;2022-09-01T13:49:31;26.50;41.60
57833;DHT22;43667;53.036;6.740;2022-09-01T13:51:56;26.70;41.40
57833;DHT22;43667;53.036;6.740;2022-09-01T13:54:22;26.50;41.30
57833;DHT22;43667;53.036;6.740;2022-09-01T13:56:47;26.30;41.70
57833;DHT22;43667;53.036;6.740;2022-09-01T13:59:13;26.00;42.00
57833;DHT22;43667;53.036;6.740;2022-09-01T14:01:39;25.80;42.10
57833;DHT22;43667;53.036;6.740;2022-09-01T14:04:06;25.80;42.10
57833;DHT22;43667;53.036;6.740;2022-09-01T14:06:32;25.60;41.90
57833;DHT22;43667;53.036;6.740;2022-09-01T14:08:58;25.20;42.70
57833;DHT22;43667;53.036;6.740;2022-09-01T14:11:24;24.90;43.00
57833;DHT22;43667;53.036;6.740;2022-09-01T14:13:51;24.70;43.40
57833;DHT22;43667;53.036;6.740;2022-09-01T14:16:17;24.70;43.00
57833;DHT22;43667;53.036;6.740;2022-09-01T14:18:43;24.50;43.90
57833;DHT22;43667;53.036;6.740;2022-09-01T14:21:13;24.50;43.60
57833;DHT22;43667;53.036;6.740;2022-09-01T14:23:41;24.40;43.80
57833;DHT22;43667;53.036;6.740;2022-09-01T14:26:13;24.50;43.00
57833;DHT22;43667;53.036;6.740;2022-09-01T14:28:41;24.50;42.90
57833;DHT22;43667;53.036;6.740;2022-09-01T14:31:11;24.40;42.90
57833;DHT22;43667;53.036;6.740;2022-09-01T14:33:39;24.30;43.60
57833;DHT22;43667;53.036;6.740;2022-09-01T14:36:06;24.40;43.30
57833;DHT22;43667;53.036;6.740;2022-09-01T14:38:32;24.60;42.90
57833;DHT22;43667;53.036;6.740;2022-09-01T14:40:58;24.80;42.50
57833;DHT22;43667;53.036;6.740;2022-09-01T14:43:24;25.00;41.80
57833;DHT22;43667;53.036;6.740;2022-09-01T14:46:02;25.10;41.60
57833;DHT22;43667;53.036;6.740;2022-09-01T14:48:30;25.20;41.20
57833;DHT22;43667;53.036;6.740;2022-09-01T14:50:56;25.00;41.60
57833;DHT22;43667;53.036;6.740;2022-09-01T14:53:22;24.70;41.50
57833;DHT22;43667;53.036;6.740;2022-09-01T14:55:48;24.40;41.70
57833;DHT22;43667;53.036;6.740;2022-09-01T14:58:14;24.20;42.00
57833;DHT22;43667;53.036;6.740;2022-09-01T15:00:39;24.20;42.50
57833;DHT22;43667;53.036;6.740;2022-09-01T15:03:06;24.40;41.60
57833;DHT22;43667;53.036;6.740;2022-09-01T15:05:34;24.80;41.20
57833;DHT22;43667;53.036;6.740;2022-09-01T15:08:00;25.30;41.10
57833;DHT22;43667;53.036;6.740;2022-09-01T15:10:26;25.80;40.60
57833;DHT22;43667;53.036;6.740;2022-09-01T15:12:54;26.20;39.80
57833;DHT22;43667;53.036;6.740;2022-09-01T15:15:21;26.50;39.60
57833;DHT22;43667;53.036;6.740;2022-09-01T15:17:47;26.60;39.10
57833;DHT22;43667;53.036;6.740;2022-09-01T15:20:12;26.70;38.70
57833;DHT22;43667;53.036;6.740;2022-09-01T15:22:56;26.70;38.60
57833;DHT22;43667;53.036;6.740;2022-09-01T15:25:23;26.50;39.00
57833;DHT22;43667;53.036;6.740;2022-09-01T15:27:49;26.20;39.10
57833;DHT22;43667;53.036;6.740;2022-09-01T15:30:14;26.00;39.50
57833;DHT22;43667;53.036;6.740;2022-09-01T15:32:43;26.30;39.30
57833;DHT22;43667;53.036;6.740;2022-09-01T15:35:09;26.80;39.10
57833;DHT22;43667;53.036;6.740;2022-09-01T15:37:35;27.50;38.30
57833;DHT22;43667;53.036;6.740;2022-09-01T15:40:01;28.00;37.50
57833;DHT22;43667;53.036;6.740;2022-09-01T15:42:27;28.30;37.10
57833;DHT22;43667;53.036;6.740;2022-09-01T15:44:52;28.50;36.20
57833;DHT22;43667;53.036;6.740;2022-09-01T15:47:18;28.60;35.50
57833;DHT22;43667;53.036;6.740;2022-09-01T15:49:44;28.80;35.40
57833;DHT22;43667;53.036;6.740;2022-09-01T15:52:09;28.90;35.10
57833;DHT22;43667;53.036;6.740;2022-09-01T15:54:38;29.20;35.00
57833;DHT22;43667;53.036;6.740;2022-09-01T15:57:06;29.70;34.70
57833;DHT22;43667;53.036;6.740;2022-09-01T15:59:32;30.10;33.90
57833;DHT22;43667;53.036;6.740;2022-09-01T16:01:58;30.30;33.20
57833;DHT22;43667;53.036;6.740;2022-09-01T16:04:24;30.60;32.60
57833;DHT22;43667;53.036;6.740;2022-09-01T16:06:50;30.60;32.30
57833;DHT22;43667;53.036;6.740;2022-09-01T16:09:17;30.70;32.10
57833;DHT22;43667;53.036;6.740;2022-09-01T16:11:43;30.90;31.80
57833;DHT22;43667;53.036;6.740;2022-09-01T16:14:09;31.10;31.30
57833;DHT22;43667;53.036;6.740;2022-09-01T16:17:02;31.30;31.50
57833;DHT22;43667;53.036;6.740;2022-09-01T16:22:27;31.30;31.40
57833;DHT22;43667;53.036;6.740;2022-09-01T16:24:55;31.30;31.40
57833;DHT22;43667;53.036;6.740;2022-09-01T16:27:31;31.20;31.70
57833;DHT22;43667;53.036;6.740;2022-09-01T16:30:09;31.10;31.10
57833;DHT22;43667;53.036;6.740;2022-09-01T16:32:39;30.80;31.30
57833;DHT22;43667;53.036;6.740;2022-09-01T16:35:06;30.60;31.60
57833;DHT22;43667;53.036;6.740;2022-09-01T16:40:41;29.60;32.00